sensor_id;sensor_type;location;lat;lon;timestamp;pressure;altitude;pressure_sealevel;temperature;humidity
57412;BME280;43247;52.828;-8.980;2023-01-01T00:00:19;99534.83;;;5.32;97.66
57412;BME280;43247;52.828;-8.980;2023-01-01T00:01:19;99536.36;;;5.34;97.58
57412;BME280;43247;52.828;-8.980;2023-01-01T00:02:19;99535.45;;;5.34;97.54
57412;BME280;43247;52.828;-8.980;2023-01-01T00:03:19;99536.70;;;5.36;97.50
57412;BME280;43247;52.828;-8.980;2023-01-01T00:04:19;99535.64;;;5.34;97.53
57412;BME280;43247;52.828;-8.980;2023-01-01T00:05:20;99537.31;;;5.34;97.57
57412;BME280;43247;52.828;-8.980;2023-01-01T00:06:21;99540.07;;;5.31;97.73
57412;BME280;43247;52.828;-8.980;2023-01-01T00:07:20;99538.99;;;5.31;97.72
57412;BME280;43247;52.828;-8.980;2023-01-01T00:08:21;99541.87;;;5.30;97.82
57412;BME280;43247;52.828;-8.980;2023-01-01T00:09:21;99543.80;;;5.30;97.77
57412;BME280;43247;52.828;-8.980;2023-01-01T00:10:22;99544.68;;;5.29;97.85
57412;BME280;43247;52.828;-8.980;2023-01-01T00:11:23;99545.90;;;5.29;97.83
57412;BME280;43247;52.828;-8.980;2023-01-01T00:12:23;99546.36;;;5.30;97.84
57412;BME280;43247;52.828;-8.980;2023-01-01T00:13:23;99548.88;;;5.29;97.84
57412;BME280;43247;52.828;-8.980;2023-01-01T00:14:23;99546.96;;;5.27;97.92
57412;BME280;43247;52.828;-8.980;2023-01-01T00:15:24;99546.39;;;5.28;97.88
57412;BME280;43247;52.828;-8.980;2023-01-01T00:16:24;99546.65;;;5.26;98.01
57412;BME280;43247;52.828;-8.980;2023-01-01T00:17:25;99547.05;;;5.25;98.05
57412;BME280;43247;52.828;-8.980;2023-01-01T00:18:25;99545.77;;;5.27;97.99
57412;BME280;43247;52.828;-8.980;2023-01-01T00:19:25;99545.50;;;5.28;97.92
57412;BME280;43247;52.828;-8.980;2023-01-01T00:20:25;99546.02;;;5.28;98.01
57412;BME280;43247;52.828;-8.980;2023-01-01T00:21:26;99545.77;;;5.24;98.30
57412;BME280;43247;52.828;-8.980;2023-01-01T00:22:26;99546.01;;;5.27;98.05
57412;BME280;43247;52.828;-8.980;2023-01-01T00:23:26;99545.86;;;5.30;97.84
57412;BME280;43247;52.828;-8.980;2023-01-01T00:24:27;99543.68;;;5.29;97.76
57412;BME280;43247;52.828;-8.980;2023-01-01T00:25:27;99547.71;;;5.30;97.65
57412;BME280;43247;52.828;-8.980;2023-01-01T00:26:28;99546.11;;;5.27;97.67
57412;BME280;43247;52.828;-8.980;2023-01-01T00:27:28;99544.28;;;5.30;97.61
57412;BME280;43247;52.828;-8.980;2023-01-01T00:28:28;99543.25;;;5.33;97.49
57412;BME280;43247;52.828;-8.980;2023-01-01T00:29:29;99542.43;;;5.33;97.41
57412;BME280;43247;52.828;-8.980;2023-01-01T00:30:29;99544.68;;;5.34;97.46
57412;BME280;43247;52.828;-8.980;2023-01-01T00:31:30;99544.21;;;5.36;97.36
57412;BME280;43247;52.828;-8.980;2023-01-01T00:32:30;99544.20;;;5.34;97.37
57412;BME280;43247;52.828;-8.980;2023-01-01T00:33:31;99544.83;;;5.33;97.43
57412;BME280;43247;52.828;-8.980;2023-01-01T00:34:32;99545.19;;;5.33;97.41
57412;BME280;43247;52.828;-8.980;2023-01-01T00:35:32;99546.05;;;5.32;97.44
57412;BME280;43247;52.828;-8.980;2023-01-01T00:36:32;99545.61;;;5.33;97.40
57412;BME280;43247;52.828;-8.980;2023-01-01T00:37:33;99546.16;;;5.32;97.45
57412;BME280;43247;52.828;-8.980;2023-01-01T00:38:34;99547.23;;;5.33;97.43
57412;BME280;43247;52.828;-8.980;2023-01-01T00:39:34;99548.41;;;5.33;97.51
57412;BME280;43247;52.828;-8.980;2023-01-01T00:40:35;99551.37;;;5.32;97.60
57412;BME280;43247;52.828;-8.980;2023-01-01T00:41:35;99550.05;;;5.33;97.57
57412;BME280;43247;52.828;-8.980;2023-01-01T00:42:35;99549.13;;;5.33;97.59
57412;BME280;43247;52.828;-8.980;2023-01-01T00:43:36;99553.77;;;5.34;97.58
57412;BME280;43247;52.828;-8.980;2023-01-01T00:44:37;99555.63;;;5.35;97.57
57412;BME280;43247;52.828;-8.980;2023-01-01T00:45:37;99557.38;;;5.35;97.55
57412;BME280;43247;52.828;-8.980;2023-01-01T00:46:37;99556.64;;;5.34;97.60
57412;BME280;43247;52.828;-8.980;2023-01-01T00:47:37;99556.86;;;5.34;97.65
57412;BME280;43247;52.828;-8.980;2023-01-01T00:48:38;99559.81;;;5.35;97.62
57412;BME280;43247;52.828;-8.980;2023-01-01T00:49:38;99562.06;;;5.33;97.71
57412;BME280;43247;52.828;-8.980;2023-01-01T00:50:38;99564.50;;;5.33;97.71
57412;BME280;43247;52.828;-8.980;2023-01-01T00:51:39;99566.01;;;5.33;97.71
57412;BME280;43247;52.828;-8.980;2023-01-01T00:52:39;99571.17;;;5.33;97.68
57412;BME280;43247;52.828;-8.980;2023-01-01T00:53:40;99572.78;;;5.33;97.73
57412;BME280;43247;52.828;-8.980;2023-01-01T00:54:40;99575.51;;;5.31;97.82
57412;BME280;43247;52.828;-8.980;2023-01-01T00:55:42;99572.92;;;5.30;98.05
57412;BME280;43247;52.828;-8.980;2023-01-01T00:56:41;99574.86;;;5.30;98.13
57412;BME280;43247;52.828;-8.980;2023-01-01T00:57:41;99574.09;;;5.32;97.85
57412;BME280;43247;52.828;-8.980;2023-01-01T00:58:41;99573.36;;;5.36;97.68
57412;BME280;43247;52.828;-8.980;2023-01-01T00:59:41;99572.45;;;5.35;97.59
57412;BME280;43247;52.828;-8.980;2023-01-01T01:00:42;99572.88;;;5.37;97.57
57412;BME280;43247;52.828;-8.980;2023-01-01T01:01:42;99572.17;;;5.36;97.54
57412;BME280;43247;52.828;-8.980;2023-01-01T01:02:42;99572.22;;;5.36;97.48
57412;BME280;43247;52.828;-8.980;2023-01-01T01:03:42;99571.45;;;5.35;97.57
57412;BME280;43247;52.828;-8.980;2023-01-01T01:04:43;99570.05;;;5.36;97.52
57412;BME280;43247;52.828;-8.980;2023-01-01T01:05:43;99570.57;;;5.37;97.39
57412;BME280;43247;52.828;-8.980;2023-01-01T01:06:44;99568.01;;;5.36;97.43
57412;BME280;43247;52.828;-8.980;2023-01-01T01:07:44;99568.59;;;5.36;97.42
57412;BME280;43247;52.828;-8.980;2023-01-01T01:08:46;99567.26;;;5.37;97.42
57412;BME280;43247;52.828;-8.980;2023-01-01T01:09:45;99567.16;;;5.38;97.39
57412;BME280;43247;52.828;-8.980;2023-01-01T01:10:45;99568.93;;;5.36;97.42
57412;BME280;43247;52.828;-8.980;2023-01-01T01:11:46;99570.81;;;5.34;97.51
57412;BME280;43247;52.828;-8.980;2023-01-01T01:12:46;99572.80;;;5.36;97.46
57412;BME280;43247;52.828;-8.980;2023-01-01T01:13:48;99573.47;;;5.37;97.40
57412;BME280;43247;52.828;-8.980;2023-01-01T01:14:47;99570.14;;;5.37;97.40
57412;BME280;43247;52.828;-8.980;2023-01-01T01:15:47;99569.00;;;5.34;97.45
57412;BME280;43247;52.828;-8.980;2023-01-01T01:16:48;99570.00;;;5.36;97.43
57412;BME280;43247;52.828;-8.980;2023-01-01T01:17:48;99570.39;;;5.34;97.62
57412;BME280;43247;52.828;-8.980;2023-01-01T01:18:49;99569.29;;;5.34;97.52
57412;BME280;43247;52.828;-8.980;2023-01-01T01:19:49;99568.92;;;5.34;97.34
57412;BME280;43247;52.828;-8.980;2023-01-01T01:20:50;99570.08;;;5.35;97.29
57412;BME280;43247;52.828;-8.980;2023-01-01T01:21:50;99571.40;;;5.35;97.28
57412;BME280;43247;52.828;-8.980;2023-01-01T01:22:51;99570.43;;;5.35;97.32
57412;BME280;43247;52.828;-8.980;2023-01-01T01:23:51;99569.51;;;5.36;97.17
57412;BME280;43247;52.828;-8.980;2023-01-01T01:24:51;99569.72;;;5.35;97.24
57412;BME280;43247;52.828;-8.980;2023-01-01T01:25:52;99571.71;;;5.37;97.12
57412;BME280;43247;52.828;-8.980;2023-01-01T01:26:53;99573.40;;;5.35;97.11
57412;BME280;43247;52.828;-8.980;2023-01-01T01:27:53;99575.28;;;5.34;97.25
57412;BME280;43247;52.828;-8.980;2023-01-01T01:28:54;99576.50;;;5.34;97.21
57412;BME280;43247;52.828;-8.980;2023-01-01T01:29:54;99575.33;;;5.35;97.18
57412;BME280;43247;52.828;-8.980;2023-01-01T01:30:58;99576.98;;;5.37;97.14
57412;BME280;43247;52.828;-8.980;2023-01-01T01:31:54;99577.06;;;5.34;97.28
57412;BME280;43247;52.828;-8.980;2023-01-01T01:32:54;99576.81;;;5.33;97.35
57412;BME280;43247;52.828;-8.980;2023-01-01T01:33:55;99573.28;;;5.32;97.39
57412;BME280;43247;52.828;-8.980;2023-01-01T01:34:55;99572.64;;;5.31;97.43
57412;BME280;43247;52.828;-8.980;2023-01-01T01:35:56;99571.67;;;5.31;97.51
57412;BME280;43247;52.828;-8.980;2023-01-01T01:36:57;99572.52;;;5.32;97.43
57412;BME280;43247;52.828;-8.980;2023-01-01T01:37:58;99572.89;;;5.32;97.47
57412;BME280;43247;52.828;-8.980;2023-01-01T01:38:58;99574.40;;;5.30;97.49
57412;BME280;43247;52.828;-8.980;2023-01-01T01:39:58;99577.13;;;5.31;97.52
57412;BME280;43247;52.828;-8.980;2023-01-01T01:40:59;99578.06;;;5.31;97.49
57412;BME280;43247;52.828;-8.980;2023-01-01T01:42:00;99578.99;;;5.29;97.55
57412;BME280;43247;52.828;-8.980;2023-01-01T01:42:59;99578.53;;;5.30;97.53
57412;BME280;43247;52.828;-8.980;2023-01-01T01:44:02;99582.32;;;5.30;97.57
57412;BME280;43247;52.828;-8.980;2023-01-01T01:45:03;99583.33;;;5.29;97.60
57412;BME280;43247;52.828;-8.980;2023-01-01T01:46:04;99584.50;;;5.31;97.55
57412;BME280;43247;52.828;-8.980;2023-01-01T01:47:02;99585.70;;;5.30;97.53
57412;BME280;43247;52.828;-8.980;2023-01-01T01:48:03;99583.77;;;5.31;97.51
57412;BME280;43247;52.828;-8.980;2023-01-01T01:49:08;99582.88;;;5.30;97.52
57412;BME280;43247;52.828;-8.980;2023-01-01T01:50:09;99581.71;;;5.30;97.58
57412;BME280;43247;52.828;-8.980;2023-01-01T01:51:04;99579.13;;;5.31;97.45
57412;BME280;43247;52.828;-8.980;2023-01-01T01:52:04;99577.63;;;5.30;97.51
57412;BME280;43247;52.828;-8.980;2023-01-01T01:53:07;99575.76;;;5.29;97.60
57412;BME280;43247;52.828;-8.980;2023-01-01T01:54:09;99575.78;;;5.30;97.56
57412;BME280;43247;52.828;-8.980;2023-01-01T01:55:07;99577.01;;;5.29;97.61
57412;BME280;43247;52.828;-8.980;2023-01-01T01:56:09;99577.92;;;5.30;97.72
57412;BME280;43247;52.828;-8.980;2023-01-01T01:57:08;99578.70;;;5.28;97.81
57412;BME280;43247;52.828;-8.980;2023-01-01T01:58:09;99578.34;;;5.29;97.50
57412;BME280;43247;52.828;-8.980;2023-01-01T01:59:07;99576.24;;;5.28;97.40
57412;BME280;43247;52.828;-8.980;2023-01-01T02:00:08;99576.20;;;5.30;97.24
57412;BME280;43247;52.828;-8.980;2023-01-01T02:01:08;99575.38;;;5.32;97.16
57412;BME280;43247;52.828;-8.980;2023-01-01T02:02:15;99576.05;;;5.30;97.24
57412;BME280;43247;52.828;-8.980;2023-01-01T02:03:12;99576.93;;;5.30;97.30
57412;BME280;43247;52.828;-8.980;2023-01-01T02:04:11;99578.11;;;5.31;97.18
57412;BME280;43247;52.828;-8.980;2023-01-01T02:05:10;99578.63;;;5.30;97.19
57412;BME280;43247;52.828;-8.980;2023-01-01T02:06:11;99579.15;;;5.30;97.17
57412;BME280;43247;52.828;-8.980;2023-01-01T02:07:13;99579.76;;;5.30;97.14
57412;BME280;43247;52.828;-8.980;2023-01-01T02:08:13;99583.05;;;5.29;97.17
57412;BME280;43247;52.828;-8.980;2023-01-01T02:09:13;99581.73;;;5.28;97.11
57412;BME280;43247;52.828;-8.980;2023-01-01T02:10:13;99583.67;;;5.28;97.08
57412;BME280;43247;52.828;-8.980;2023-01-01T02:11:14;99581.07;;;5.28;97.11
57412;BME280;43247;52.828;-8.980;2023-01-01T02:12:15;99582.15;;;5.27;97.15
57412;BME280;43247;52.828;-8.980;2023-01-01T02:13:16;99582.06;;;5.29;97.10
57412;BME280;43247;52.828;-8.980;2023-01-01T02:14:16;99581.68;;;5.28;96.98
57412;BME280;43247;52.828;-8.980;2023-01-01T02:15:17;99582.81;;;5.27;96.98
57412;BME280;43247;52.828;-8.980;2023-01-01T02:16:20;99583.55;;;5.28;96.82
57412;BME280;43247;52.828;-8.980;2023-01-01T02:17:23;99585.90;;;5.27;96.88
57412;BME280;43247;52.828;-8.980;2023-01-01T02:18:23;99583.39;;;5.26;96.81
57412;BME280;43247;52.828;-8.980;2023-01-01T02:19:26;99582.85;;;5.23;96.90
57412;BME280;43247;52.828;-8.980;2023-01-01T02:20:29;99582.75;;;5.25;96.83
57412;BME280;43247;52.828;-8.980;2023-01-01T02:21:24;99586.25;;;5.26;96.70
57412;BME280;43247;52.828;-8.980;2023-01-01T02:22:27;99588.96;;;5.26;96.69
57412;BME280;43247;52.828;-8.980;2023-01-01T02:23:30;99591.11;;;5.25;96.88
57412;BME280;43247;52.828;-8.980;2023-01-01T02:24:34;99594.20;;;5.24;96.85
57412;BME280;43247;52.828;-8.980;2023-01-01T02:25:30;99597.72;;;5.23;96.80
57412;BME280;43247;52.828;-8.980;2023-01-01T02:26:36;99598.50;;;5.23;96.73
57412;BME280;43247;52.828;-8.980;2023-01-01T02:27:31;99598.67;;;5.21;96.80
57412;BME280;43247;52.828;-8.980;2023-01-01T02:29:33;99597.11;;;5.21;96.85
57412;BME280;43247;52.828;-8.980;2023-01-01T02:30:29;99597.13;;;5.21;96.86
57412;BME280;43247;52.828;-8.980;2023-01-01T02:31:30;99596.34;;;5.23;96.77
57412;BME280;43247;52.828;-8.980;2023-01-01T02:32:32;99598.07;;;5.20;96.88
57412;BME280;43247;52.828;-8.980;2023-01-01T02:33:28;99597.79;;;5.21;96.88
57412;BME280;43247;52.828;-8.980;2023-01-01T02:34:34;99600.97;;;5.19;97.00
57412;BME280;43247;52.828;-8.980;2023-01-01T02:35:30;99602.97;;;5.19;96.83
57412;BME280;43247;52.828;-8.980;2023-01-01T02:36:30;99604.68;;;5.19;96.73
57412;BME280;43247;52.828;-8.980;2023-01-01T02:37:28;99606.49;;;5.21;96.64
57412;BME280;43247;52.828;-8.980;2023-01-01T02:38:32;99605.95;;;5.21;96.69
57412;BME280;43247;52.828;-8.980;2023-01-01T02:39:32;99605.98;;;5.19;96.63
57412;BME280;43247;52.828;-8.980;2023-01-01T02:40:30;99607.12;;;5.19;96.75
57412;BME280;43247;52.828;-8.980;2023-01-01T02:41:35;99612.46;;;5.19;96.75
57412;BME280;43247;52.828;-8.980;2023-01-01T02:42:32;99612.28;;;5.18;96.69
57412;BME280;43247;52.828;-8.980;2023-01-01T02:43:32;99615.40;;;5.20;96.59
57412;BME280;43247;52.828;-8.980;2023-01-01T02:44:35;99614.17;;;5.19;96.68
57412;BME280;43247;52.828;-8.980;2023-01-01T02:45:33;99613.60;;;5.20;96.79
57412;BME280;43247;52.828;-8.980;2023-01-01T02:46:35;99614.09;;;5.19;96.83
57412;BME280;43247;52.828;-8.980;2023-01-01T02:47:34;99612.67;;;5.18;96.82
57412;BME280;43247;52.828;-8.980;2023-01-01T02:48:38;99611.20;;;5.16;96.69
57412;BME280;43247;52.828;-8.980;2023-01-01T02:49:38;99611.96;;;5.18;96.53
57412;BME280;43247;52.828;-8.980;2023-01-01T02:50:35;99612.14;;;5.20;96.35
57412;BME280;43247;52.828;-8.980;2023-01-01T02:51:45;99610.21;;;5.22;96.21
57412;BME280;43247;52.828;-8.980;2023-01-01T02:52:48;99609.58;;;5.21;96.27
57412;BME280;43247;52.828;-8.980;2023-01-01T02:53:41;99608.50;;;5.22;96.19
57412;BME280;43247;52.828;-8.980;2023-01-01T02:54:42;99608.78;;;5.21;96.27
57412;BME280;43247;52.828;-8.980;2023-01-01T02:55:48;99609.89;;;5.22;96.26
57412;BME280;43247;52.828;-8.980;2023-01-01T02:56:42;99610.73;;;5.23;96.17
57412;BME280;43247;52.828;-8.980;2023-01-01T02:57:41;99614.54;;;5.22;96.19
57412;BME280;43247;52.828;-8.980;2023-01-01T02:58:44;99614.74;;;5.22;96.21
57412;BME280;43247;52.828;-8.980;2023-01-01T02:59:52;99615.53;;;5.21;96.28
57412;BME280;43247;52.828;-8.980;2023-01-01T03:00:40;99615.79;;;5.20;96.35
57412;BME280;43247;52.828;-8.980;2023-01-01T03:01:45;99615.41;;;5.21;96.41
57412;BME280;43247;52.828;-8.980;2023-01-01T03:02:50;99616.28;;;5.23;96.30
57412;BME280;43247;52.828;-8.980;2023-01-01T03:03:47;99618.07;;;5.21;96.23
57412;BME280;43247;52.828;-8.980;2023-01-01T03:04:50;99615.96;;;5.21;96.27
57412;BME280;43247;52.828;-8.980;2023-01-01T03:05:50;99618.48;;;5.19;96.40
57412;BME280;43247;52.828;-8.980;2023-01-01T03:06:48;99620.68;;;5.16;96.53
57412;BME280;43247;52.828;-8.980;2023-01-01T03:07:50;99621.22;;;5.18;96.42
57412;BME280;43247;52.828;-8.980;2023-01-01T03:08:48;99623.63;;;5.18;96.43
57412;BME280;43247;52.828;-8.980;2023-01-01T03:09:50;99626.06;;;5.17;96.42
57412;BME280;43247;52.828;-8.980;2023-01-01T03:10:52;99628.17;;;5.16;96.46
57412;BME280;43247;52.828;-8.980;2023-01-01T03:11:49;99631.58;;;5.16;96.51
57412;BME280;43247;52.828;-8.980;2023-01-01T03:12:53;99631.58;;;5.17;96.47
57412;BME280;43247;52.828;-8.980;2023-01-01T03:13:52;99630.99;;;5.16;96.50
57412;BME280;43247;52.828;-8.980;2023-01-01T03:14:52;99630.80;;;5.16;96.48
57412;BME280;43247;52.828;-8.980;2023-01-01T03:15:54;99629.28;;;5.15;96.49
57412;BME280;43247;52.828;-8.980;2023-01-01T03:16:50;99631.92;;;5.16;96.51
57412;BME280;43247;52.828;-8.980;2023-01-01T03:17:54;99633.00;;;5.12;96.65
57412;BME280;43247;52.828;-8.980;2023-01-01T03:18:55;99632.27;;;5.13;96.65
57412;BME280;43247;52.828;-8.980;2023-01-01T03:19:50;99630.71;;;5.10;96.72
57412;BME280;43247;52.828;-8.980;2023-01-01T03:20:52;99628.46;;;5.12;96.75
57412;BME280;43247;52.828;-8.980;2023-01-01T03:21:56;99629.96;;;5.13;96.67
57412;BME280;43247;52.828;-8.980;2023-01-01T03:22:54;99630.63;;;5.12;96.67
57412;BME280;43247;52.828;-8.980;2023-01-01T03:23:53;99632.32;;;5.11;96.69
57412;BME280;43247;52.828;-8.980;2023-01-01T03:24:55;99631.39;;;5.11;96.69
57412;BME280;43247;52.828;-8.980;2023-01-01T03:25:56;99633.98;;;5.09;96.79
57412;BME280;43247;52.828;-8.980;2023-01-01T03:26:56;99633.51;;;5.09;96.77
57412;BME280;43247;52.828;-8.980;2023-01-01T03:27:56;99634.10;;;5.08;96.78
57412;BME280;43247;52.828;-8.980;2023-01-01T03:28:56;99637.36;;;5.08;96.82
57412;BME280;43247;52.828;-8.980;2023-01-01T03:29:57;99637.59;;;5.09;96.78
57412;BME280;43247;52.828;-8.980;2023-01-01T03:30:56;99638.99;;;5.08;96.74
57412;BME280;43247;52.828;-8.980;2023-01-01T03:31:56;99639.14;;;5.07;96.81
57412;BME280;43247;52.828;-8.980;2023-01-01T03:32:59;99635.73;;;5.07;96.79
57412;BME280;43247;52.828;-8.980;2023-01-01T03:34:01;99633.77;;;5.06;96.84
57412;BME280;43247;52.828;-8.980;2023-01-01T03:34:57;99634.36;;;5.06;96.81
57412;BME280;43247;52.828;-8.980;2023-01-01T03:35:59;99632.33;;;5.05;96.82
57412;BME280;43247;52.828;-8.980;2023-01-01T03:36:59;99631.72;;;5.05;96.83
57412;BME280;43247;52.828;-8.980;2023-01-01T03:38:01;99631.35;;;5.03;96.94
57412;BME280;43247;52.828;-8.980;2023-01-01T03:39:02;99631.78;;;5.04;96.84
57412;BME280;43247;52.828;-8.980;2023-01-01T03:39:59;99627.99;;;5.02;96.92
57412;BME280;43247;52.828;-8.980;2023-01-01T03:41:02;99629.40;;;5.05;96.86
57412;BME280;43247;52.828;-8.980;2023-01-01T03:42:09;99626.18;;;5.01;96.98
57412;BME280;43247;52.828;-8.980;2023-01-01T03:43:05;99625.63;;;5.02;96.93
57412;BME280;43247;52.828;-8.980;2023-01-01T03:44:04;99625.45;;;5.01;96.94
57412;BME280;43247;52.828;-8.980;2023-01-01T03:45:05;99629.14;;;5.00;96.99
57412;BME280;43247;52.828;-8.980;2023-01-01T03:46:03;99631.08;;;5.00;96.96
57412;BME280;43247;52.828;-8.980;2023-01-01T03:47:03;99631.52;;;5.00;96.99
57412;BME280;43247;52.828;-8.980;2023-01-01T03:48:04;99629.37;;;5.00;96.98
57412;BME280;43247;52.828;-8.980;2023-01-01T03:49:07;99625.81;;;5.00;96.99
57412;BME280;43247;52.828;-8.980;2023-01-01T03:50:05;99622.79;;;4.99;97.04
57412;BME280;43247;52.828;-8.980;2023-01-01T03:51:09;99621.19;;;5.00;96.99
57412;BME280;43247;52.828;-8.980;2023-01-01T03:52:19;99623.44;;;5.00;96.99
57412;BME280;43247;52.828;-8.980;2023-01-01T03:53:09;99621.47;;;4.98;97.08
57412;BME280;43247;52.828;-8.980;2023-01-01T03:54:11;99621.06;;;4.99;97.02
57412;BME280;43247;52.828;-8.980;2023-01-01T03:55:10;99618.81;;;4.98;97.10
57412;BME280;43247;52.828;-8.980;2023-01-01T03:56:13;99620.59;;;4.98;97.15
57412;BME280;43247;52.828;-8.980;2023-01-01T03:57:12;99620.36;;;4.97;97.13
57412;BME280;43247;52.828;-8.980;2023-01-01T03:58:11;99622.35;;;4.97;97.17
57412;BME280;43247;52.828;-8.980;2023-01-01T03:59:13;99622.86;;;4.98;97.11
57412;BME280;43247;52.828;-8.980;2023-01-01T04:00:12;99618.90;;;4.98;97.08
57412;BME280;43247;52.828;-8.980;2023-01-01T04:01:13;99613.31;;;4.97;97.12
57412;BME280;43247;52.828;-8.980;2023-01-01T04:02:13;99612.26;;;4.97;97.08
57412;BME280;43247;52.828;-8.980;2023-01-01T04:03:15;99609.36;;;4.97;97.03
57412;BME280;43247;52.828;-8.980;2023-01-01T04:04:12;99610.54;;;4.96;97.07
57412;BME280;43247;52.828;-8.980;2023-01-01T04:05:11;99610.95;;;4.96;97.07
57412;BME280;43247;52.828;-8.980;2023-01-01T04:06:11;99612.13;;;4.96;97.01
57412;BME280;43247;52.828;-8.980;2023-01-01T04:07:12;99618.13;;;4.95;97.10
57412;BME280;43247;52.828;-8.980;2023-01-01T04:08:12;99621.33;;;4.93;97.13
57412;BME280;43247;52.828;-8.980;2023-01-01T04:09:15;99625.57;;;4.93;97.11
57412;BME280;43247;52.828;-8.980;2023-01-01T04:10:13;99632.65;;;4.93;97.14
57412;BME280;43247;52.828;-8.980;2023-01-01T04:11:16;99636.15;;;4.91;97.21
57412;BME280;43247;52.828;-8.980;2023-01-01T04:12:15;99632.49;;;4.92;97.18
57412;BME280;43247;52.828;-8.980;2023-01-01T04:13:14;99629.68;;;4.92;97.16
57412;BME280;43247;52.828;-8.980;2023-01-01T04:15:15;99624.33;;;4.89;97.28
57412;BME280;43247;52.828;-8.980;2023-01-01T04:16:15;99623.20;;;4.89;97.26
57412;BME280;43247;52.828;-8.980;2023-01-01T04:17:17;99622.89;;;4.90;97.24
57412;BME280;43247;52.828;-8.980;2023-01-01T04:18:17;99624.57;;;4.90;97.22
57412;BME280;43247;52.828;-8.980;2023-01-01T04:19:17;99625.34;;;4.89;97.26
57412;BME280;43247;52.828;-8.980;2023-01-01T04:20:18;99620.89;;;4.88;97.31
57412;BME280;43247;52.828;-8.980;2023-01-01T04:21:18;99619.89;;;4.89;97.25
57412;BME280;43247;52.828;-8.980;2023-01-01T04:22:19;99620.14;;;4.88;97.22
57412;BME280;43247;52.828;-8.980;2023-01-01T04:23:19;99618.63;;;4.87;97.29
57412;BME280;43247;52.828;-8.980;2023-01-01T04:24:19;99617.23;;;4.88;97.21
57412;BME280;43247;52.828;-8.980;2023-01-01T04:25:20;99617.78;;;4.85;97.29
57412;BME280;43247;52.828;-8.980;2023-01-01T04:26:20;99616.10;;;4.85;97.26
57412;BME280;43247;52.828;-8.980;2023-01-01T04:27:21;99619.23;;;4.85;97.24
57412;BME280;43247;52.828;-8.980;2023-01-01T04:28:21;99621.64;;;4.87;97.17
57412;BME280;43247;52.828;-8.980;2023-01-01T04:29:22;99622.04;;;4.87;97.17
57412;BME280;43247;52.828;-8.980;2023-01-01T04:30:22;99624.83;;;4.84;97.24
57412;BME280;43247;52.828;-8.980;2023-01-01T04:31:22;99627.55;;;4.86;97.23
57412;BME280;43247;52.828;-8.980;2023-01-01T04:32:23;99626.74;;;4.86;97.19
57412;BME280;43247;52.828;-8.980;2023-01-01T04:33:24;99628.11;;;4.85;97.19
57412;BME280;43247;52.828;-8.980;2023-01-01T04:34:25;99628.96;;;4.86;97.17
57412;BME280;43247;52.828;-8.980;2023-01-01T04:35:25;99629.09;;;4.84;97.23
57412;BME280;43247;52.828;-8.980;2023-01-01T04:36:25;99629.70;;;4.87;97.11
57412;BME280;43247;52.828;-8.980;2023-01-01T04:37:26;99626.36;;;4.84;97.20
57412;BME280;43247;52.828;-8.980;2023-01-01T04:38:26;99626.02;;;4.84;97.17
57412;BME280;43247;52.828;-8.980;2023-01-01T04:39:27;99626.12;;;4.84;97.12
57412;BME280;43247;52.828;-8.980;2023-01-01T04:40:28;99627.15;;;4.83;97.15
57412;BME280;43247;52.828;-8.980;2023-01-01T04:41:28;99624.62;;;4.84;97.10
57412;BME280;43247;52.828;-8.980;2023-01-01T04:42:29;99627.85;;;4.84;97.03
57412;BME280;43247;52.828;-8.980;2023-01-01T04:43:30;99630.03;;;4.83;97.08
57412;BME280;43247;52.828;-8.980;2023-01-01T04:44:30;99629.79;;;4.83;97.07
57412;BME280;43247;52.828;-8.980;2023-01-01T04:45:31;99630.76;;;4.83;97.06
57412;BME280;43247;52.828;-8.980;2023-01-01T04:46:31;99626.58;;;4.82;97.12
57412;BME280;43247;52.828;-8.980;2023-01-01T04:47:32;99624.24;;;4.82;97.11
57412;BME280;43247;52.828;-8.980;2023-01-01T04:48:34;99624.25;;;4.83;97.06
57412;BME280;43247;52.828;-8.980;2023-01-01T04:49:32;99622.78;;;4.80;97.17
57412;BME280;43247;52.828;-8.980;2023-01-01T04:50:32;99625.77;;;4.82;97.12
57412;BME280;43247;52.828;-8.980;2023-01-01T04:51:33;99624.07;;;4.80;97.11
57412;BME280;43247;52.828;-8.980;2023-01-01T04:52:33;99626.54;;;4.81;97.09
57412;BME280;43247;52.828;-8.980;2023-01-01T04:53:34;99628.49;;;4.81;97.02
57412;BME280;43247;52.828;-8.980;2023-01-01T04:54:34;99631.12;;;4.82;96.99
57412;BME280;43247;52.828;-8.980;2023-01-01T04:55:34;99631.01;;;4.81;97.05
57412;BME280;43247;52.828;-8.980;2023-01-01T04:56:34;99634.04;;;4.80;97.11
57412;BME280;43247;52.828;-8.980;2023-01-01T04:57:35;99633.40;;;4.81;97.05
57412;BME280;43247;52.828;-8.980;2023-01-01T04:58:37;99630.48;;;4.81;97.00
57412;BME280;43247;52.828;-8.980;2023-01-01T04:59:36;99630.77;;;4.80;97.11
57412;BME280;43247;52.828;-8.980;2023-01-01T05:00:36;99631.35;;;4.81;97.11
57412;BME280;43247;52.828;-8.980;2023-01-01T05:01:37;99634.47;;;4.81;97.06
57412;BME280;43247;52.828;-8.980;2023-01-01T05:02:37;99632.34;;;4.80;97.15
57412;BME280;43247;52.828;-8.980;2023-01-01T05:03:38;99632.36;;;4.80;97.13
57412;BME280;43247;52.828;-8.980;2023-01-01T05:04:38;99634.69;;;4.81;97.08
57412;BME280;43247;52.828;-8.980;2023-01-01T05:05:39;99633.65;;;4.80;97.15
57412;BME280;43247;52.828;-8.980;2023-01-01T05:06:39;99636.05;;;4.78;97.21
57412;BME280;43247;52.828;-8.980;2023-01-01T05:07:39;99635.87;;;4.79;97.25
57412;BME280;43247;52.828;-8.980;2023-01-01T05:08:41;99636.96;;;4.78;97.26
57412;BME280;43247;52.828;-8.980;2023-01-01T05:09:39;99640.28;;;4.79;97.22
57412;BME280;43247;52.828;-8.980;2023-01-01T05:10:40;99640.09;;;4.80;97.20
57412;BME280;43247;52.828;-8.980;2023-01-01T05:11:40;99641.88;;;4.80;97.21
57412;BME280;43247;52.828;-8.980;2023-01-01T05:12:40;99642.65;;;4.80;97.20
57412;BME280;43247;52.828;-8.980;2023-01-01T05:13:42;99644.52;;;4.81;97.14
57412;BME280;43247;52.828;-8.980;2023-01-01T05:14:41;99642.39;;;4.78;97.24
57412;BME280;43247;52.828;-8.980;2023-01-01T05:15:41;99643.44;;;4.80;97.19
57412;BME280;43247;52.828;-8.980;2023-01-01T05:16:42;99641.82;;;4.80;97.19
57412;BME280;43247;52.828;-8.980;2023-01-01T05:17:43;99639.57;;;4.79;97.24
57412;BME280;43247;52.828;-8.980;2023-01-01T05:18:44;99638.93;;;4.78;97.24
57412;BME280;43247;52.828;-8.980;2023-01-01T05:19:44;99636.81;;;4.78;97.27
57412;BME280;43247;52.828;-8.980;2023-01-01T05:20:44;99635.87;;;4.79;97.22
57412;BME280;43247;52.828;-8.980;2023-01-01T05:21:45;99635.74;;;4.79;97.24